createdAt,value
2022-11-21T00:01:19.951Z,67.08
2022-11-21T00:03:47.662Z,66.60
2022-11-21T00:06:17.430Z,66.57
2022-11-21T00:08:46.267Z,66.80
2022-11-21T00:11:14.464Z,66.61
2022-11-21T00:13:42.978Z,66.98
2022-11-21T00:16:14.012Z,67.25
2022-11-21T00:18:42.340Z,66.80
2022-11-21T00:21:13.634Z,66.75
2022-11-21T00:23:42.721Z,66.61
2022-11-21T00:26:12.272Z,67.19
2022-11-21T00:28:40.000Z,66.39
2022-11-21T00:31:08.287Z,66.71
2022-11-21T00:33:37.233Z,66.94
2022-11-21T00:36:09.539Z,66.34
2022-11-21T00:38:37.508Z,66.49
2022-11-21T00:41:07.170Z,66.49
2022-11-21T00:43:35.219Z,66.38
2022-11-21T00:46:03.302Z,66.99
2022-11-21T00:48:32.121Z,66.13
2022-11-21T00:51:00.458Z,66.95
2022-11-21T00:53:28.210Z,66.71
2022-11-21T00:55:55.952Z,65.89
2022-11-21T00:58:24.996Z,66.36
2022-11-21T01:00:52.670Z,66.71
2022-11-21T01:03:20.448Z,65.87
2022-11-21T01:05:48.134Z,66.09
2022-11-21T01:08:15.841Z,66.09
2022-11-21T01:10:43.513Z,66.21
2022-11-21T01:13:11.218Z,66.45
2022-11-21T01:15:40.237Z,66.53
2022-11-21T01:18:07.872Z,66.35
2022-11-21T01:20:35.556Z,66.37
2022-11-21T01:23:03.231Z,66.01
2022-11-21T01:25:30.870Z,66.14
2022-11-21T01:27:58.558Z,66.12
2022-11-21T01:30:26.269Z,66.09
2022-11-21T01:32:55.285Z,66.56
2022-11-21T01:35:23.001Z,65.60
2022-11-21T01:37:50.890Z,66.62
2022-11-21T01:40:18.747Z,65.88
2022-11-21T01:42:59.565Z,66.56
2022-11-21T01:45:56.186Z,65.91
2022-11-21T01:48:29.917Z,66.37
2022-11-21T01:51:02.167Z,66.67
2022-11-21T01:53:30.231Z,66.34
2022-11-21T01:55:58.052Z,66.67
2022-11-21T01:58:26.534Z,65.59
2022-11-21T02:00:54.785Z,66.34
2022-11-21T02:03:28.546Z,66.61
2022-11-21T02:05:57.151Z,66.21
2022-11-21T02:08:27.385Z,66.41
2022-11-21T02:11:05.105Z,66.39
2022-11-21T02:13:32.840Z,66.60
2022-11-21T02:16:00.588Z,65.95
2022-11-21T02:18:29.683Z,65.99
2022-11-21T02:21:08.010Z,66.56
2022-11-21T02:23:41.556Z,66.63
2022-11-21T02:26:11.884Z,66.03
2022-11-21T02:28:39.585Z,66.36
2022-11-21T02:31:07.261Z,66.86
2022-11-21T02:33:35.262Z,65.98
2022-11-21T02:36:04.088Z,66.67
2022-11-21T02:38:36.217Z,66.04
2022-11-21T02:41:09.589Z,66.08
2022-11-21T02:43:43.563Z,66.33
2022-11-21T02:46:11.406Z,65.93
2022-11-21T02:48:39.764Z,65.81
2022-11-21T02:51:07.722Z,66.33
2022-11-21T02:53:35.427Z,66.14
2022-11-21T02:56:03.091Z,66.70
2022-11-21T02:58:31.085Z,65.67
2022-11-21T03:01:00.199Z,66.09
2022-11-21T03:03:28.007Z,66.34
2022-11-21T03:05:56.852Z,66.03
2022-11-21T03:08:24.487Z,66.35
2022-11-21T03:10:52.129Z,66.39
2022-11-21T03:13:20.378Z,66.50
2022-11-21T03:15:48.033Z,66.69
2022-11-21T03:18:17.180Z,66.48
2022-11-21T03:20:44.807Z,66.24
2022-11-21T03:23:13.850Z,66.29
2022-11-21T03:25:41.542Z,66.01
2022-11-21T03:28:09.254Z,66.34
2022-11-21T03:30:37.029Z,66.09
2022-11-21T03:33:04.815Z,65.99
2022-11-21T03:35:33.840Z,65.94
2022-11-21T03:38:01.536Z,66.00
2022-11-21T03:40:29.218Z,66.72
2022-11-21T03:42:56.932Z,66.72
2022-11-21T03:45:24.645Z,65.96
2022-11-21T03:47:52.346Z,66.47
2022-11-21T03:50:21.595Z,66.61
2022-11-21T03:52:50.641Z,66.32
2022-11-21T03:55:18.325Z,66.54
2022-11-21T03:57:45.980Z,66.67
2022-11-21T04:00:15.187Z,66.49
2022-11-21T04:02:42.867Z,66.79
2022-11-21T04:05:10.789Z,66.18
2022-11-21T04:07:38.509Z,66.54
2022-11-21T04:10:08.430Z,66.53
2022-11-21T04:12:36.220Z,66.32
2022-11-21T04:15:06.114Z,66.60
2022-11-21T04:17:37.049Z,66.35
2022-11-21T04:20:05.333Z,65.79
2022-11-21T04:22:33.002Z,66.70
2022-11-21T04:25:00.694Z,66.16
2022-11-21T04:27:29.680Z,67.04
2022-11-21T04:29:57.346Z,66.66
2022-11-21T04:32:25.026Z,66.31
2022-11-21T04:34:52.708Z,66.15
2022-11-21T04:37:20.427Z,66.12
2022-11-21T04:39:48.133Z,66.57
2022-11-21T04:42:15.807Z,65.92
2022-11-21T04:44:44.842Z,66.90
2022-11-21T04:47:12.502Z,66.75
2022-11-21T04:49:40.209Z,66.75
2022-11-21T04:52:08.019Z,67.19
2022-11-21T04:54:35.703Z,66.99
2022-11-21T04:57:03.351Z,66.54
2022-11-21T04:59:31.056Z,66.47
2022-11-21T05:02:00.116Z,66.86
2022-11-21T05:04:28.163Z,66.30
2022-11-21T05:06:56.036Z,66.52
2022-11-21T05:09:23.697Z,66.16
2022-11-21T05:12:08.735Z,66.40
2022-11-21T05:14:36.405Z,66.82
2022-11-21T05:17:05.392Z,66.30
2022-11-21T05:19:33.074Z,66.29
2022-11-21T05:22:00.725Z,66.92
2022-11-21T05:24:28.591Z,66.48
2022-11-21T05:26:56.547Z,66.75
2022-11-21T05:29:28.071Z,66.57
2022-11-21T05:31:56.066Z,66.26
2022-11-21T05:34:25.253Z,66.43
2022-11-21T05:36:57.068Z,66.40
2022-11-21T05:39:25.456Z,66.23
2022-11-21T05:41:55.270Z,66.38
2022-11-21T05:44:25.279Z,66.37
2022-11-21T05:46:53.172Z,67.03
2022-11-21T05:49:21.302Z,66.92
2022-11-21T05:51:50.484Z,67.12
2022-11-21T05:54:18.251Z,66.46
2022-11-21T05:56:45.968Z,67.21
2022-11-21T05:59:13.773Z,66.91
2022-11-21T06:01:59.296Z,66.42
2022-11-21T06:04:27.382Z,66.85
2022-11-21T06:06:56.545Z,66.10
2022-11-21T06:09:24.219Z,67.32
2022-11-21T06:11:51.891Z,66.22
2022-11-21T06:14:19.527Z,66.79
2022-11-21T06:16:47.277Z,66.05
2022-11-21T06:19:15.005Z,66.60
2022-11-21T06:21:42.714Z,67.57
2022-11-21T06:24:12.178Z,66.79
2022-11-21T06:26:39.865Z,66.92
2022-11-21T06:29:07.557Z,66.31
2022-11-21T06:31:35.236Z,67.35
2022-11-21T06:34:03.268Z,66.69
2022-11-21T06:36:31.006Z,67.25
2022-11-21T06:38:58.677Z,66.63
2022-11-21T06:41:30.248Z,66.36
2022-11-21T06:44:00.720Z,66.59
2022-11-21T06:46:28.809Z,66.50
2022-11-21T06:48:56.518Z,67.44
2022-11-21T06:51:26.026Z,66.73
2022-11-21T06:53:55.806Z,66.49
2022-11-21T06:56:23.942Z,66.82
2022-11-21T06:58:53.033Z,66.40
2022-11-21T07:01:20.813Z,66.32
2022-11-21T07:03:48.853Z,66.67
2022-11-21T07:06:16.589Z,66.46
2022-11-21T07:08:44.286Z,66.43
2022-11-21T07:11:29.041Z,66.94
2022-11-21T07:13:58.090Z,66.85
2022-11-21T07:16:26.382Z,66.98
2022-11-21T07:18:54.289Z,67.46
2022-11-21T07:21:21.953Z,67.64
2022-11-21T07:23:49.678Z,67.02
2022-11-21T07:26:17.443Z,66.61
2022-11-21T07:28:45.144Z,67.38
2022-11-21T07:31:14.480Z,67.26
2022-11-21T07:33:44.188Z,67.21
2022-11-21T07:36:13.540Z,66.97
2022-11-21T07:38:42.427Z,66.65
2022-11-21T07:41:10.308Z,67.23
2022-11-21T07:43:37.986Z,67.06
2022-11-21T07:46:05.737Z,67.50
2022-11-21T07:48:34.738Z,66.96
2022-11-21T07:51:05.116Z,66.99
2022-11-21T07:53:32.904Z,66.40
2022-11-21T07:56:00.824Z,66.80
2022-11-21T07:58:28.616Z,66.39
2022-11-21T08:00:56.290Z,66.20
2022-11-21T08:03:25.306Z,66.04
2022-11-21T08:05:54.336Z,66.21
2022-11-21T08:08:21.984Z,66.31
2022-11-21T08:10:51.376Z,66.81
2022-11-21T08:13:19.024Z,66.37
2022-11-21T08:15:46.678Z,66.21
2022-11-21T08:18:16.309Z,65.76
2022-11-21T08:20:44.226Z,66.65
2022-11-21T08:23:13.254Z,66.44
2022-11-21T08:25:42.117Z,66.12
2022-11-21T08:28:12.286Z,66.73
2022-11-21T08:30:41.046Z,66.17
2022-11-21T08:33:08.825Z,66.64
2022-11-21T08:35:37.625Z,67.08
2022-11-21T08:38:05.823Z,67.19
2022-11-21T08:40:35.950Z,66.43
2022-11-21T08:43:05.719Z,66.55
2022-11-21T08:45:34.613Z,66.38
2022-11-21T08:48:02.998Z,66.31
2022-11-21T08:50:31.962Z,66.56
2022-11-21T08:53:01.626Z,66.06
2022-11-21T08:55:29.397Z,65.56
2022-11-21T08:57:58.436Z,64.32
2022-11-21T09:00:26.384Z,64.11
2022-11-21T09:02:54.113Z,63.18
2022-11-21T09:05:21.932Z,63.35
2022-11-21T09:07:49.645Z,62.56
2022-11-21T09:10:17.441Z,61.99
2022-11-21T09:12:45.136Z,61.61
2022-11-21T09:15:31.642Z,61.06
2022-11-21T09:18:04.958Z,60.70
2022-11-21T09:20:34.064Z,60.47
2022-11-21T09:23:05.435Z,60.56
2022-11-21T09:25:33.126Z,60.31
2022-11-21T09:28:01.558Z,60.13
2022-11-21T09:30:30.724Z,60.20
2022-11-21T09:33:01.327Z,60.15
2022-11-21T09:35:29.263Z,60.21
2022-11-21T09:37:57.085Z,59.88
2022-11-21T09:40:25.458Z,60.20
2022-11-21T09:43:08.163Z,59.97
2022-11-21T09:45:45.853Z,60.01
2022-11-21T09:48:17.005Z,59.91
2022-11-21T09:50:53.602Z,59.85
2022-11-21T09:53:25.353Z,59.65
2022-11-21T09:55:59.057Z,59.95
2022-11-21T09:58:32.572Z,60.25
2022-11-21T10:01:02.057Z,60.78
2022-11-21T10:03:32.701Z,61.51
2022-11-21T10:06:04.878Z,61.88
2022-11-21T10:08:42.676Z,62.62
2022-11-21T10:11:22.504Z,63.00
2022-11-21T10:14:14.085Z,63.78
2022-11-21T10:16:50.657Z,63.98
2022-11-21T10:19:48.849Z,63.71
2022-11-21T10:22:38.249Z,64.14
2022-11-21T10:25:14.694Z,64.27
2022-11-21T10:27:48.493Z,64.86
2022-11-21T10:30:18.379Z,64.91
2022-11-21T10:32:50.725Z,64.80
2022-11-21T10:35:22.976Z,64.92
2022-11-21T10:37:53.491Z,65.50
2022-11-21T10:40:38.039Z,65.41
2022-11-21T10:43:33.393Z,65.29
2022-11-21T10:46:01.067Z,65.84
2022-11-21T10:48:30.137Z,65.73
2022-11-21T10:51:20.019Z,65.55
2022-11-21T10:54:08.091Z,65.68
2022-11-21T10:56:38.082Z,65.71
2022-11-21T10:59:25.680Z,65.64
2022-11-21T11:01:57.981Z,65.58
2022-11-21T11:04:43.954Z,65.77
2022-11-21T11:07:25.736Z,65.75
2022-11-21T11:09:54.436Z,65.61
2022-11-21T11:12:47.095Z,65.90
2022-11-21T11:15:20.275Z,66.05
2022-11-21T11:17:52.726Z,65.71
2022-11-21T11:20:35.559Z,66.06
2022-11-21T11:23:17.615Z,65.72
2022-11-21T11:25:49.814Z,65.69
2022-11-21T11:28:19.265Z,65.76
2022-11-21T11:30:48.277Z,65.76
2022-11-21T11:33:36.689Z,65.66
2022-11-21T11:36:13.921Z,66.42
2022-11-21T11:38:45.060Z,65.92
2022-11-21T11:41:23.721Z,65.70
2022-11-21T11:44:21.963Z,65.78
2022-11-21T11:47:17.974Z,65.87
2022-11-21T11:50:07.421Z,66.13
2022-11-21T11:52:44.345Z,65.39
2022-11-21T11:55:19.910Z,66.01
2022-11-21T11:57:49.301Z,66.04
2022-11-21T12:00:28.172Z,65.61
2022-11-21T12:03:02.326Z,66.23
2022-11-21T12:05:31.898Z,65.61
2022-11-21T12:11:26.120Z,65.99
2022-11-21T12:13:55.661Z,65.88
2022-11-21T12:16:27.869Z,65.75
2022-11-21T12:19:01.030Z,65.92
2022-11-21T12:21:29.957Z,65.75
2022-11-21T12:23:59.938Z,66.10
2022-11-21T12:26:37.438Z,65.55
2022-11-21T12:29:17.013Z,65.53
2022-11-21T12:32:05.338Z,64.44
2022-11-21T12:34:48.770Z,63.90
2022-11-21T12:37:29.256Z,63.13
2022-11-21T12:40:05.354Z,62.44
2022-11-21T12:42:51.320Z,62.23
2022-11-21T12:45:32.277Z,62.07
2022-11-21T12:48:40.164Z,62.68
2022-11-21T12:51:54.249Z,63.32
2022-11-21T12:54:42.064Z,63.84
2022-11-21T12:57:13.061Z,63.95
2022-11-21T12:59:51.754Z,63.86
2022-11-21T13:02:29.861Z,64.16
2022-11-21T13:04:59.335Z,64.46
2022-11-21T13:07:30.777Z,64.26
2022-11-21T13:10:01.766Z,64.01
2022-11-21T13:12:39.609Z,64.35
2022-11-21T13:15:19.369Z,64.39
2022-11-21T13:17:53.009Z,64.79
2022-11-21T13:20:28.331Z,65.08
2022-11-21T13:22:58.576Z,65.08
2022-11-21T13:25:48.841Z,64.78
2022-11-21T13:28:37.580Z,64.87
2022-11-21T13:31:29.118Z,65.06
2022-11-21T13:33:57.106Z,64.96
2022-11-21T13:36:52.037Z,65.10
2022-11-21T13:39:31.046Z,65.33
2022-11-21T13:42:30.621Z,65.09
2022-11-21T13:45:20.684Z,65.20
2022-11-21T13:48:18.672Z,65.03
2022-11-21T13:51:28.581Z,65.25
2022-11-21T13:54:19.228Z,65.48
2022-11-21T13:57:05.807Z,65.27
2022-11-21T13:59:52.294Z,65.40
2022-11-21T14:02:44.841Z,64.85
2022-11-21T14:05:35.210Z,64.49
2022-11-21T14:08:15.332Z,63.77
2022-11-21T14:10:43.120Z,63.17
2022-11-21T14:13:24.305Z,62.37
2022-11-21T14:16:06.379Z,61.82
2022-11-21T14:18:39.436Z,62.13
2022-11-21T14:21:09.151Z,62.35
2022-11-21T14:23:37.647Z,62.58
2022-11-21T14:26:12.573Z,62.94
2022-11-21T14:28:40.237Z,63.17
2022-11-21T14:31:09.894Z,63.67
2022-11-21T14:33:40.024Z,63.83
2022-11-21T14:36:10.686Z,63.97
2022-11-21T14:38:43.760Z,64.16
2022-11-21T14:41:29.745Z,64.59
2022-11-21T14:44:15.146Z,64.41
2022-11-21T14:46:43.883Z,64.42
2022-11-21T14:49:20.624Z,64.52
2022-11-21T14:51:50.972Z,64.71
2022-11-21T14:54:20.830Z,64.84
2022-11-21T14:56:50.265Z,64.58
2022-11-21T14:59:25.857Z,64.63
2022-11-21T15:01:58.533Z,64.87
2022-11-21T15:04:32.298Z,64.65
2022-11-21T15:07:00.663Z,65.19
2022-11-21T15:10:26.154Z,64.92
2022-11-21T15:12:24.750Z,64.80
2022-11-21T15:14:55.877Z,64.14
2022-11-21T15:17:25.469Z,63.68
2022-11-21T15:20:19.336Z,62.92
2022-11-21T15:22:48.922Z,62.37
2022-11-21T15:25:20.142Z,61.97
2022-11-21T15:27:49.096Z,61.39
2022-11-21T15:30:30.782Z,61.04
2022-11-21T15:33:10.287Z,61.43
2022-11-21T15:35:47.434Z,61.80
2022-11-21T15:38:34.378Z,62.36
2022-11-21T15:41:04.837Z,62.72
2022-11-21T15:43:41.704Z,63.20
2022-11-21T15:46:15.035Z,63.34
2022-11-21T15:48:42.809Z,63.88
2022-11-21T15:51:12.340Z,63.59
2022-11-21T15:53:40.363Z,63.83
2022-11-21T15:56:08.395Z,63.96
2022-11-21T15:58:36.058Z,64.03
2022-11-21T16:01:03.868Z,64.15
2022-11-21T16:03:31.638Z,64.20
2022-11-21T16:05:59.311Z,64.43
2022-11-21T16:08:28.325Z,64.52
2022-11-21T16:10:56.023Z,64.42
2022-11-21T16:13:23.732Z,64.56
2022-11-21T16:15:51.376Z,64.54
2022-11-21T16:18:19.022Z,64.60
2022-11-21T16:20:46.885Z,64.60
2022-11-21T16:23:14.597Z,64.77
2022-11-21T16:25:53.752Z,64.59
2022-11-21T16:28:21.464Z,64.47
2022-11-21T16:30:49.191Z,64.42
2022-11-21T16:33:17.219Z,64.66
2022-11-21T16:35:44.934Z,64.32
2022-11-21T16:38:13.174Z,64.51
2022-11-21T16:40:40.853Z,64.82
2022-11-21T16:43:12.398Z,64.72
2022-11-21T16:45:40.458Z,64.73
2022-11-21T16:48:08.186Z,64.43
2022-11-21T16:50:35.872Z,64.77
2022-11-21T16:53:03.536Z,64.85
2022-11-21T16:55:31.630Z,64.51
2022-11-21T16:57:59.369Z,64.49
2022-11-21T17:00:29.264Z,64.78
2022-11-21T17:02:58.052Z,64.90
2022-11-21T17:05:25.709Z,64.66
2022-11-21T17:07:53.520Z,65.03
2022-11-21T17:10:21.259Z,64.93
2022-11-21T17:12:48.977Z,64.89
2022-11-21T17:15:16.765Z,64.82
2022-11-21T17:17:45.808Z,64.75
2022-11-21T17:20:13.685Z,64.72
2022-11-21T17:22:41.383Z,64.59
2022-11-21T17:25:09.933Z,64.87
2022-11-21T17:27:37.650Z,64.87
2022-11-21T17:30:06.200Z,64.84
2022-11-21T17:32:35.356Z,64.51
2022-11-21T17:35:05.030Z,64.70
2022-11-21T17:37:32.718Z,64.84
2022-11-21T17:40:00.414Z,64.64
2022-11-21T17:42:28.370Z,64.54
2022-11-21T17:44:56.066Z,64.46
2022-11-21T17:47:23.803Z,64.70
2022-11-21T17:49:51.445Z,64.79
2022-11-21T17:52:20.448Z,64.46
2022-11-21T17:54:48.143Z,64.41
2022-11-21T17:57:15.805Z,64.43
2022-11-21T17:59:45.033Z,64.79
2022-11-21T18:02:13.093Z,63.87
2022-11-21T18:04:41.110Z,64.00
2022-11-21T18:07:08.839Z,64.36
2022-11-21T18:09:38.049Z,64.31
2022-11-21T18:12:06.427Z,64.33
2022-11-21T18:14:34.062Z,64.72
2022-11-21T18:17:01.810Z,64.38
2022-11-21T18:19:29.667Z,64.63
2022-11-21T18:21:57.388Z,64.61
2022-11-21T18:24:25.024Z,64.51
2022-11-21T18:26:54.074Z,64.58
2022-11-21T18:29:38.241Z,64.82
2022-11-21T18:32:06.971Z,64.78
2022-11-21T18:34:34.748Z,64.74
2022-11-21T18:37:02.585Z,64.37
2022-11-21T18:39:30.563Z,64.64
2022-11-21T18:41:59.861Z,64.99
2022-11-21T18:44:27.531Z,64.92
2022-11-21T18:46:55.402Z,65.06
2022-11-21T18:49:23.113Z,64.79
2022-11-21T18:51:51.067Z,64.79
2022-11-21T18:54:18.745Z,65.21
2022-11-21T18:56:47.338Z,64.81
2022-11-21T18:59:16.609Z,65.17
2022-11-21T19:01:44.837Z,65.24
2022-11-21T19:04:12.605Z,65.21
2022-11-21T19:06:40.306Z,65.57
2022-11-21T19:09:08.333Z,64.77
2022-11-21T19:11:36.068Z,64.86
2022-11-21T19:14:03.921Z,64.89
2022-11-21T19:16:34.322Z,65.02
2022-11-21T19:21:50.274Z,64.87
2022-11-21T19:24:19.481Z,64.68
2022-11-21T19:26:47.344Z,65.17
2022-11-21T19:29:15.006Z,64.87
2022-11-21T19:31:45.974Z,64.76
2022-11-21T19:34:14.178Z,65.06
2022-11-21T19:36:42.250Z,65.22
2022-11-21T19:39:09.987Z,65.15
2022-11-21T19:41:37.954Z,65.22
2022-11-21T19:44:05.717Z,65.26
2022-11-21T19:46:35.500Z,65.13
2022-11-21T19:49:05.638Z,65.34
2022-11-21T19:51:35.641Z,64.91
2022-11-21T19:54:03.675Z,65.32
2022-11-21T19:56:31.392Z,65.29
2022-11-21T19:58:59.700Z,65.05
2022-11-21T20:01:29.188Z,65.20
2022-11-21T20:03:58.645Z,65.18
2022-11-21T20:06:29.347Z,65.43
2022-11-21T20:08:58.651Z,65.42
2022-11-21T20:11:28.127Z,65.28
2022-11-21T20:13:56.536Z,65.42
2022-11-21T20:16:26.081Z,65.60
2022-11-21T20:18:55.415Z,65.51
2022-11-21T20:21:23.093Z,65.60
2022-11-21T20:23:52.432Z,65.25
2022-11-21T20:26:21.977Z,65.16
2022-11-21T20:28:49.811Z,65.40
2022-11-21T20:31:19.769Z,65.42
2022-11-21T20:33:49.692Z,65.65
2022-11-21T20:36:19.520Z,65.61
2022-11-21T20:38:53.827Z,65.28
2022-11-21T20:41:22.884Z,65.25
2022-11-21T20:46:42.374Z,65.69
2022-11-21T20:49:10.330Z,65.75
2022-11-21T20:54:27.345Z,65.68
2022-11-21T20:56:55.289Z,65.61
2022-11-21T20:59:23.334Z,65.70
2022-11-21T21:01:51.074Z,65.57
2022-11-21T21:04:18.922Z,65.71
2022-11-21T21:06:46.593Z,65.76
2022-11-21T21:09:14.300Z,65.95
2022-11-21T21:11:52.598Z,66.02
2022-11-21T21:14:21.400Z,66.14
2022-11-21T21:16:49.757Z,65.80
2022-11-21T21:19:17.755Z,65.77
2022-11-21T21:21:45.538Z,65.77
2022-11-21T21:24:13.826Z,65.84
2022-11-21T21:26:44.514Z,65.91
2022-11-21T21:29:13.810Z,66.15
2022-11-21T21:31:46.800Z,65.95
2022-11-21T21:34:18.086Z,66.16
2022-11-21T21:36:45.865Z,66.09
2022-11-21T21:39:13.526Z,65.86
2022-11-21T21:41:44.402Z,65.92
2022-11-21T21:44:14.053Z,65.84
2022-11-21T21:46:41.879Z,65.91
2022-11-21T21:49:09.522Z,66.27
2022-11-21T21:51:37.549Z,65.85
2022-11-21T21:54:06.298Z,66.12
2022-11-21T21:56:34.665Z,66.19
2022-11-21T21:59:02.475Z,66.29
2022-11-21T22:01:32.991Z,66.08
2022-11-21T22:04:02.608Z,66.43
2022-11-21T22:06:33.301Z,66.08
2022-11-21T22:09:01.403Z,66.42
2022-11-21T22:11:30.863Z,66.22
2022-11-21T22:14:00.381Z,66.36
2022-11-21T22:16:28.482Z,66.26
2022-11-21T22:18:57.998Z,66.22
2022-11-21T22:21:28.017Z,66.24
2022-11-21T22:24:23.562Z,66.49
2022-11-21T22:26:46.134Z,66.50
2022-11-21T22:29:13.826Z,66.33
2022-11-21T22:31:41.498Z,66.03
2022-11-21T22:34:12.460Z,66.44
2022-11-21T22:36:40.158Z,66.36
2022-11-21T22:39:07.992Z,66.60
2022-11-21T22:41:35.743Z,66.32
2022-11-21T22:44:03.471Z,66.70
2022-11-21T22:46:31.970Z,66.61
2022-11-21T22:49:00.155Z,66.43
2022-11-21T22:51:30.243Z,66.61
2022-11-21T22:53:58.429Z,66.17
2022-11-21T22:56:27.083Z,66.54
2022-11-21T22:58:56.090Z,66.39
2022-11-21T23:01:26.329Z,66.10
2022-11-21T23:03:55.483Z,66.17
2022-11-21T23:06:24.706Z,66.18
2022-11-21T23:08:55.429Z,66.05
2022-11-21T23:11:26.027Z,66.12
2022-11-21T23:13:54.688Z,66.23
2022-11-21T23:16:23.091Z,66.49
2022-11-21T23:18:53.628Z,66.24
2022-11-21T23:21:21.994Z,66.11
2022-11-21T23:23:49.695Z,66.21
2022-11-21T23:26:18.732Z,66.40
2022-11-21T23:28:46.457Z,66.40
2022-11-21T23:31:14.107Z,66.68
2022-11-21T23:33:41.903Z,66.54
2022-11-21T23:36:09.638Z,66.18
2022-11-21T23:38:37.586Z,66.23
2022-11-21T23:41:05.470Z,66.18
2022-11-21T23:43:34.745Z,66.24
2022-11-21T23:46:02.476Z,66.84
2022-11-21T23:48:30.226Z,66.51
2022-11-21T23:50:58.010Z,66.57
2022-11-21T23:53:25.730Z,66.58
2022-11-21T23:55:53.463Z,66.22
2022-11-21T23:58:21.229Z,66.28
